This is the latest recevied weather packets stored in our database for station/object AI4Y. If no packets are shown the sender has not sent any weather packets the latest 10 day(s).
| Time | Temp. | Humidity | Pressure | Rain* | Wind** | Luminosity | Snow |
|---|---|---|---|---|---|---|---|
| 1778035816 | 18.33° C | 56% | 1013.1 hPa | 0 mm | - | 0 W/m² | - |
| 1778031016 | 19.44° C | 52% | 1013.1 hPa | 0 mm | - | 0 W/m² | - |
| 1778029217 | 19.44° C | 51% | 1013 hPa | 0 mm | - | 0 W/m² | - |
| 1778028018 | 20° C | 49% | 1012.8 hPa | 0 mm | - | 0 W/m² | - |
| 1778025618 | 22.22° C | 44% | 1012.6 hPa | 0 mm | - | 11 W/m² | - |
| 1778025018 | 22.22° C | 43% | 1012.5 hPa | 0 mm | - | 20 W/m² | - |
| 1778019617 | 25.56° C | 36% | 1012.7 hPa | 0 mm | - | 168 W/m² | - |
| 1778017817 | 26.67° C | 34% | 1012.5 hPa | 0 mm | - | 452 W/m² | - |
| 1778011819 | 27.78° C | 35% | 1012.8 hPa | 0 mm | - | 425 W/m² | - |
| 1778011236 | 28.33° C | 34% | 1012.9 hPa | 0 mm | - | 740 W/m² | - |
| 1778010619 | 27.78° C | 36% | 1013 hPa | 0 mm | - | 804 W/m² | - |
| 1777998059 | 27.22° C | 41% | 1014.8 hPa | 0.51 mm | - | 878 W/m² | - |
| 1777994416 | 25.56° C | 42% | 1015.7 hPa | 0 mm | - | 660 W/m² | - |
| 1777992617 | 24.44° C | 47% | 1015.4 hPa | 0 mm | - | 666 W/m² | - |
| 1777987818 | 21.67° C | 54% | 1015.4 hPa | 0 mm | - | 428 W/m² | - |
| 1777987258 | 21.67° C | 52% | 1015.4 hPa | 0 mm | - | 395 W/m² | - |
| 1777984235 | 15.56° C | 71% | 1015.3 hPa | 0 mm | - | 236 W/m² | - |
| 1777975238 | 8.33° C | 90% | 1014.5 hPa | 0 mm | - | 0 W/m² | - |
| 1777971016 | 10° C | 84% | 1014.7 hPa | 0 mm | - | 0 W/m² | - |
| 1777969216 | 10° C | 82% | 1014.3 hPa | 0 mm | - | 0 W/m² | - |
| 1777968616 | 10° C | 83% | 1014.2 hPa | 0 mm | - | 0 W/m² | - |
| 1777966217 | 12.78° C | 73% | 1013.7 hPa | 0 mm | - | 0 W/m² | - |
| 1777960216 | 15° C | 59% | 1013.6 hPa | 0 mm | - | 0 W/m² | - |
| 1777956037 | 15.56° C | 59% | 1013.5 hPa | 0 mm | - | 0 W/m² | - |
| 1777954820 | 15.56° C | 58% | 1013.4 hPa | 0 mm | - | 0 W/m² | - |
* Rain latest hour (hover to see other rain measurements)
** Current wind speed in m/s (hover to see current wind gust speed)